Time;durP1;ratioP1;P1;durP2;ratioP2;P2;SDS_P1;SDS_P2;PMS_P1;PMS_P2;Temp;Humidity;BMP_temperature;BMP_pressure;BME280_temperature;BME280_humidity;BME280_pressure;Samples;Min_cycle;Max_cycle;Signal;HPM_P1;HPM_P2
2023/11/06 00:00:01;;;;;;;;;;;;;;;16.31;56.37;99857.59;5092992;28;1081;-42
2023/11/06 00:02:28;;;;;;;;;;;;;;;16.52;57.16;99874.66;5089796;28;1117;-44
2023/11/06 00:04:57;;;;;;;;;;;;;;;17.48;56.17;99849.84;5084328;28;1153;-43
2023/11/06 00:07:23;;;;;;;;;;;;;;;16.81;56.98;99870.13;5096233;28;1913;-43
2023/11/06 00:09:49;;;;;;;;;;;;;;;16.55;56.78;99878.69;5078353;28;1054;-44
2023/11/06 00:12:15;;;;;;;;;;;;;;;16.45;56.28;99867.88;5077727;28;1051;-44
2023/11/06 00:14:40;;;;;;;;;;;;;;;16.29;55.96;99881.78;5078431;28;1066;-44
2023/11/06 00:17:06;;;;;;;;;;;;;;;16.21;55.81;99863.22;5089524;28;1124;-43
2023/11/06 00:19:31;;;;;;;;;;;;;;;17.15;56.80;99874.56;5079301;28;1117;-43
2023/11/06 00:21:57;;;;;;;;;;;;;;;17.22;56.50;99888.75;5080095;28;1201;-44
2023/11/06 00:24:23;;;;;;;;;;;;;;;16.69;56.79;99901.59;5091198;28;1121;-45
2023/11/06 00:26:48;;;;;;;;;;;;;;;16.50;56.53;99904.28;5089831;28;1054;-42
2023/11/06 00:29:14;;;;;;;;;;;;;;;16.37;56.24;99910.50;5078448;28;1062;-43
2023/11/06 00:31:39;;;;;;;;;;;;;;;16.26;56.05;99912.56;5089611;28;1123;-45
2023/11/06 00:34:05;;;;;;;;;;;;;;;16.41;56.99;99926.09;5082699;28;1158;-47
2023/11/06 00:36:31;;;;;;;;;;;;;;;17.54;56.07;99920.09;5077047;28;1058;-47
2023/11/06 00:38:56;;;;;;;;;;;;;;;16.85;56.94;99924.13;5078223;28;1293;-43
2023/11/06 00:41:22;;;;;;;;;;;;;;;16.57;56.51;99914.91;5085275;28;1049;-44
2023/11/06 00:43:47;;;;;;;;;;;;;;;16.41;56.51;99928.84;5082315;28;1065;-44
2023/11/06 00:46:13;;;;;;;;;;;;;;;16.30;56.10;99927.31;5087122;28;1041;-44
2023/11/06 00:48:38;;;;;;;;;;;;;;;16.24;55.92;99928.47;5090552;28;1968;-47
2023/11/06 00:51:04;;;;;;;;;;;;;;;17.37;56.69;99926.97;5089096;28;1118;-41
2023/11/06 00:53:30;;;;;;;;;;;;;;;17.12;56.49;99930.13;5061777;28;1600;-44
2023/11/06 00:55:55;;;;;;;;;;;;;;;16.72;56.85;99919.41;5067884;28;1272;-45
2023/11/06 00:58:21;;;;;;;;;;;;;;;16.54;56.49;99918.25;5082368;28;1055;-43
2023/11/06 01:00:47;;;;;;;;;;;;;;;16.37;56.13;99914.06;5059321;28;1260;-41
2023/11/06 01:03:12;;;;;;;;;;;;;;;16.22;55.87;99914.25;5060342;28;1236;-44
2023/11/06 01:05:38;;;;;;;;;;;;;;;16.16;55.55;99932.69;5078654;28;1453;-43
2023/11/06 01:08:05;;;;;;;;;;;;;;;16.40;56.90;99938.16;5074071;28;2419;-45
2023/11/06 01:10:33;;;;;;;;;;;;;;;17.47;56.22;99908.69;5087915;28;1158;-46
2023/11/06 01:13:00;;;;;;;;;;;;;;;16.79;56.81;99900.63;5083286;28;1215;-41
2023/11/06 01:15:29;;;;;;;;;;;;;;;16.53;56.51;99891.91;5078573;28;1631;-46
2023/11/06 01:17:54;;;;;;;;;;;;;;;16.35;56.45;99924.50;5077799;28;1208;-46
2023/11/06 01:20:22;;;;;;;;;;;;;;;16.70;57.41;99935.31;5059145;28;1334;-43
2023/11/06 01:22:48;;;;;;;;;;;;;;;17.30;56.32;99926.53;5058596;28;1127;-43
2023/11/06 01:25:14;;;;;;;;;;;;;;;16.72;57.04;99922.94;5076753;28;1054;-47
2023/11/06 01:27:39;;;;;;;;;;;;;;;16.51;56.66;99938.88;5082959;28;1977;-42
2023/11/06 01:30:06;;;;;;;;;;;;;;;16.34;56.25;99933.03;5083967;28;1149;-47
2023/11/06 01:32:32;;;;;;;;;;;;;;;16.63;57.11;99927.44;5090194;28;1146;-42
2023/11/06 01:34:58;;;;;;;;;;;;;;;17.14;56.65;99908.66;5076788;28;887;-48
2023/11/06 01:37:25;;;;;;;;;;;;;;;16.67;56.80;99908.47;5082468;28;1085;-41
2023/11/06 01:39:51;;;;;;;;;;;;;;;16.45;56.59;99906.28;5096732;28;1062;-44
2023/11/06 01:42:17;;;;;;;;;;;;;;;16.30;56.08;99915.50;5096256;28;1141;-45
2023/11/06 01:44:42;;;;;;;;;;;;;;;16.86;57.38;99911.25;5083755;28;1141;-46
2023/11/06 01:47:09;;;;;;;;;;;;;;;17.15;56.53;99904.78;5088176;28;1984;-41
2023/11/06 01:49:35;;;;;;;;;;;;;;;16.64;56.90;99904.38;5096401;28;1082;-46
2023/11/06 01:52:01;;;;;;;;;;;;;;;16.46;56.54;99903.25;5082782;28;1188;-41
2023/11/06 01:54:26;;;;;;;;;;;;;;;16.36;55.97;99909.69;5065489;28;1376;-45
2023/11/06 01:56:53;;;;;;;;;;;;;;;16.21;55.81;99912.59;5095510;28;1062;-42
2023/11/06 01:59:19;;;;;;;;;;;;;;;17.26;56.47;99917.25;5063808;28;1523;-43
2023/11/06 02:01:45;;;;;;;;;;;;;;;17.35;56.26;99912.72;5071364;28;1143;-47
2023/11/06 02:04:12;;;;;;;;;;;;;;;16.77;56.81;99903.66;5071931;28;1162;-47
2023/11/06 02:06:37;;;;;;;;;;;;;;;16.56;56.40;99914.09;5082157;28;1106;-42
2023/11/06 02:09:03;;;;;;;;;;;;;;;16.47;56.17;99934.28;5083477;28;1991;-46
2023/11/06 02:11:29;;;;;;;;;;;;;;;16.33;55.81;99942.38;5086560;28;1016;-42
2023/11/06 02:13:54;;;;;;;;;;;;;;;16.48;56.87;99946.84;5083089;28;1164;-45
2023/11/06 02:16:20;;;;;;;;;;;;;;;17.61;55.84;99954.34;5089254;28;1225;-44
2023/11/06 02:18:46;;;;;;;;;;;;;;;16.89;57.01;99960.09;5058226;28;1475;-47
2023/11/06 02:21:11;;;;;;;;;;;;;;;16.62;56.81;99961.53;5096184;28;1273;-47
2023/11/06 02:23:37;;;;;;;;;;;;;;;16.39;56.32;99958.47;5093852;28;941;-44
2023/11/06 02:26:03;;;;;;;;;;;;;;;16.31;56.18;99955.56;5071663;28;1149;-44
2023/11/06 02:28:29;;;;;;;;;;;;;;;16.93;57.09;99955.66;5070945;28;1974;-45
2023/11/06 02:30:54;;;;;;;;;;;;;;;17.43;55.95;99967.00;5076147;28;1137;-45
2023/11/06 02:33:20;;;;;;;;;;;;;;;16.82;56.76;99962.38;5089662;28;1170;-47
2023/11/06 02:35:45;;;;;;;;;;;;;;;16.57;56.54;99958.81;5085264;28;1280;-45
2023/11/06 02:38:11;;;;;;;;;;;;;;;16.46;56.08;99960.88;5089177;28;1083;-43
2023/11/06 02:40:36;;;;;;;;;;;;;;;16.32;55.88;99960.75;5082864;28;976;-43
2023/11/06 02:43:02;;;;;;;;;;;;;;;16.22;55.74;99974.59;5064756;28;1222;-46
2023/11/06 02:45:27;;;;;;;;;;;;;;;16.21;56.13;99973.75;5071191;28;1011;-44
2023/11/06 02:47:53;;;;;;;;;;;;;;;17.29;56.59;99966.09;5078451;28;1976;-44
2023/11/06 02:50:20;;;;;;;;;;;;;;;16.70;56.96;99974.56;5082576;28;1062;-46
2023/11/06 02:52:46;;;;;;;;;;;;;;;16.42;57.01;99979.03;5082243;28;1234;-44
2023/11/06 02:55:11;;;;;;;;;;;;;;;16.63;57.56;99974.13;5082755;28;1126;-43
2023/11/06 02:57:37;;;;;;;;;;;;;;;17.56;56.07;99967.34;5092300;28;1046;-44
2023/11/06 03:00:06;;;;;;;;;;;;;;;16.88;56.89;99980.41;5089126;28;896;-46
2023/11/06 03:02:33;;;;;;;;;;;;;;;16.63;56.42;99962.31;5074672;28;1676;-44
2023/11/06 03:04:59;;;;;;;;;;;;;;;16.41;56.18;99967.25;5061669;28;1308;-42
2023/11/06 03:07:24;;;;;;;;;;;;;;;16.29;56.19;99969.56;5091703;28;1913;-45
2023/11/06 03:09:50;;;;;;;;;;;;;;;17.14;57.04;99969.06;5099322;28;1101;-45
2023/11/06 03:12:15;;;;;;;;;;;;;;;17.06;56.61;99973.31;5075941;28;1541;-43
2023/11/06 03:14:41;;;;;;;;;;;;;;;16.72;56.78;99974.31;5080786;28;1201;-45
2023/11/06 03:17:07;;;;;;;;;;;;;;;16.52;56.28;99983.59;5086408;28;1053;-42
2023/11/06 03:19:33;;;;;;;;;;;;;;;16.40;55.94;99997.72;5097994;28;1128;-42
2023/11/06 03:21:59;;;;;;;;;;;;;;;16.24;55.81;99997.06;5080749;28;1089;-43
2023/11/06 03:24:25;;;;;;;;;;;;;;;16.28;56.11;99994.56;5092005;28;1087;-48
2023/11/06 03:26:51;;;;;;;;;;;;;;;17.47;56.40;99999.38;5079035;28;1198;-47
2023/11/06 03:29:17;;;;;;;;;;;;;;;16.96;56.81;100004.50;5083715;28;1897;-45
2023/11/06 03:31:43;;;;;;;;;;;;;;;16.65;56.60;100004.84;5086748;28;1125;-45
2023/11/06 03:34:09;;;;;;;;;;;;;;;16.47;56.26;100009.16;5092213;28;1047;-45
2023/11/06 03:36:45;;;;;;;;;;;;;;;16.80;57.07;100011.25;5091176;28;986;-44
2023/11/06 03:39:11;;;;;;;;;;;;;;;17.12;56.74;100013.31;5091359;28;1090;-46
2023/11/06 03:41:36;;;;;;;;;;;;;;;16.72;56.57;100010.78;5060505;28;1480;-43
2023/11/06 03:44:02;;;;;;;;;;;;;;;16.50;56.26;100022.28;5085384;28;1075;-43
2023/11/06 03:46:27;;;;;;;;;;;;;;;16.36;56.05;100019.44;5084376;28;1062;-45
2023/11/06 03:48:53;;;;;;;;;;;;;;;16.24;55.94;100029.97;5078387;28;1974;-43
2023/11/06 03:51:19;;;;;;;;;;;;;;;16.16;55.62;100036.91;5078596;28;1130;-43
2023/11/06 03:53:45;;;;;;;;;;;;;;;16.15;55.34;100039.94;5091142;28;1099;-48
2023/11/06 03:56:10;;;;;;;;;;;;;;;17.16;56.84;100038.28;5092267;28;1065;-45
2023/11/06 03:58:36;;;;;;;;;;;;;;;17.07;56.58;100047.19;5097078;28;1069;-47
2023/11/06 04:01:02;;;;;;;;;;;;;;;16.64;56.74;100054.56;5078028;28;1109;-44
2023/11/06 04:03:28;;;;;;;;;;;;;;;16.45;56.51;100038.81;5078352;28;1059;-44
2023/11/06 04:05:54;;;;;;;;;;;;;;;16.30;55.89;100053.53;5078188;28;1131;-47
2023/11/06 04:08:19;;;;;;;;;;;;;;;17.33;56.58;100063.31;5084766;28;1976;-43
2023/11/06 04:10:45;;;;;;;;;;;;;;;17.31;56.30;100062.81;5095391;28;1121;-45
2023/11/06 04:13:10;;;;;;;;;;;;;;;16.80;56.44;100056.00;5091234;28;1038;-46
2023/11/06 04:15:36;;;;;;;;;;;;;;;16.53;56.28;100062.88;5091007;28;1125;-46
2023/11/06 04:18:02;;;;;;;;;;;;;;;16.86;57.25;100060.31;5085086;28;2378;-42
2023/11/06 04:20:28;;;;;;;;;;;;;;;17.32;56.22;100058.97;5092977;28;1974;-42
2023/11/06 04:22:53;;;;;;;;;;;;;;;16.82;56.63;100058.47;5088647;28;1904;-43
2023/11/06 04:25:19;;;;;;;;;;;;;;;16.64;56.38;100069.09;5079684;28;1936;-47
2023/11/06 04:27:45;;;;;;;;;;;;;;;16.49;56.02;100077.47;5084033;28;2022;-46
2023/11/06 04:30:11;;;;;;;;;;;;;;;16.33;55.79;100077.63;5085185;28;2030;-51
2023/11/06 04:32:36;;;;;;;;;;;;;;;16.35;56.49;100080.09;5081348;28;2133;-48
2023/11/06 04:35:02;;;;;;;;;;;;;;;17.55;56.13;100078.41;5079170;28;1094;-46
2023/11/06 04:37:28;;;;;;;;;;;;;;;16.86;56.85;100084.22;5085620;28;1487;-50
2023/11/06 04:39:53;;;;;;;;;;;;;;;16.63;56.52;100088.59;5076862;28;1097;-48
2023/11/06 04:42:19;;;;;;;;;;;;;;;16.47;56.20;100099.72;5092109;28;1134;-47
2023/11/06 04:44:45;;;;;;;;;;;;;;;16.26;56.23;100093.63;5089461;28;1383;-50
2023/11/06 04:47:10;;;;;;;;;;;;;;;16.22;55.73;100089.81;5096415;28;1975;-48
2023/11/06 04:49:36;;;;;;;;;;;;;;;16.75;57.12;100098.06;5095591;28;1118;-45
2023/11/06 04:52:01;;;;;;;;;;;;;;;17.21;56.51;100093.19;5082789;28;889;-48
2023/11/06 04:54:27;;;;;;;;;;;;;;;16.70;56.91;100114.56;5096510;28;1148;-47
2023/11/06 04:56:52;;;;;;;;;;;;;;;16.41;56.58;100115.41;5078140;28;1158;-52
2023/11/06 04:59:18;;;;;;;;;;;;;;;16.56;57.50;100127.34;5088009;28;1539;-46
2023/11/06 05:01:43;;;;;;;;;;;;;;;17.30;56.40;100127.13;5089204;28;2308;-50
2023/11/06 05:04:09;;;;;;;;;;;;;;;16.72;57.05;100134.34;5096822;28;908;-49
2023/11/06 05:06:35;;;;;;;;;;;;;;;16.52;56.57;100138.09;5078017;28;1030;-46
2023/11/06 05:09:00;;;;;;;;;;;;;;;16.36;56.40;100145.63;5088985;28;1906;-46
2023/11/06 05:11:26;;;;;;;;;;;;;;;16.39;57.09;100141.50;5090654;28;1027;-43
2023/11/06 05:13:54;;;;;;;;;;;;;;;17.55;56.20;100153.44;5076404;28;1097;-43
2023/11/06 05:16:20;;;;;;;;;;;;;;;16.83;56.96;100147.94;5095479;28;1098;-47
2023/11/06 05:18:45;;;;;;;;;;;;;;;16.57;56.74;100156.44;5078627;28;1110;-46
2023/11/06 05:21:11;;;;;;;;;;;;;;;16.38;56.62;100151.69;5090104;28;1077;-46
2023/11/06 05:23:36;;;;;;;;;;;;;;;16.29;56.14;100164.34;5084681;28;1116;-45
2023/11/06 05:26:02;;;;;;;;;;;;;;;16.32;57.03;100161.03;5089365;28;1129;-44
2023/11/06 05:28:28;;;;;;;;;;;;;;;17.26;56.72;100167.28;5075852;28;1913;-45
2023/11/06 05:30:54;;;;;;;;;;;;;;;16.69;57.22;100170.59;5089979;28;2262;-44
2023/11/06 05:33:19;;;;;;;;;;;;;;;17.73;55.22;100181.28;5087711;28;1163;-49
2023/11/06 05:35:45;;;;;;;;;;;;;;;17.06;54.66;100190.31;5090670;28;1186;-46
2023/11/06 05:38:10;;;;;;;;;;;;;;;16.66;52.78;100186.81;5087960;28;1339;-45
2023/11/06 05:40:36;;;;;;;;;;;;;;;16.43;51.54;100189.22;5101741;28;1332;-45
2023/11/06 05:43:01;;;;;;;;;;;;;;;16.39;50.20;100194.44;5096888;28;1189;-49
2023/11/06 05:45:27;;;;;;;;;;;;;;;16.93;53.37;100195.38;5075989;28;1086;-45
2023/11/06 05:47:52;;;;;;;;;;;;;;;16.65;51.93;100204.41;5086891;28;1906;-46
2023/11/06 05:50:18;;;;;;;;;;;;;;;16.53;50.38;100213.81;5096134;28;1042;-50
2023/11/06 05:52:45;;;;;;;;;;;;;;;16.95;52.62;100211.56;5080251;28;1139;-47
2023/11/06 05:55:11;;;;;;;;;;;;;;;16.71;50.81;100223.28;5076230;28;1110;-51
2023/11/06 05:57:37;;;;;;;;;;;;;;;16.56;49.75;100220.66;5088945;28;1030;-50
2023/11/06 06:00:03;;;;;;;;;;;;;;;16.87;51.21;100225.91;5086211;28;1055;-50
2023/11/06 06:02:37;;;;;;;;;;;;;;;16.86;51.66;100238.81;5079704;28;2521;-49
2023/11/06 06:05:06;;;;;;;;;;;;;;;16.66;50.22;100236.25;5089600;28;1055;-46
2023/11/06 06:07:32;;;;;;;;;;;;;;;16.50;49.01;100235.56;5089044;28;1913;-50
2023/11/06 06:09:57;;;;;;;;;;;;;;;17.56;52.04;100248.56;5082832;28;1059;-51
2023/11/06 06:12:23;;;;;;;;;;;;;;;16.90;51.45;100250.06;5088525;28;1168;-49
2023/11/06 06:14:50;;;;;;;;;;;;;;;16.78;50.30;100255.91;5095665;28;1086;-46
2023/11/06 06:17:16;;;;;;;;;;;;;;;17.57;52.32;100260.38;5095650;28;1039;-47
2023/11/06 06:19:41;;;;;;;;;;;;;;;17.10;51.01;100268.28;5088901;28;1205;-45
2023/11/06 06:22:07;;;;;;;;;;;;;;;16.85;49.89;100261.88;5089165;28;1117;-49
2023/11/06 06:24:32;;;;;;;;;;;;;;;16.80;48.71;100269.34;5075813;28;843;-48
2023/11/06 06:26:58;;;;;;;;;;;;;;;16.74;48.01;100280.38;5075158;28;1247;-50
2023/11/06 06:29:24;;;;;;;;;;;;;;;17.38;50.17;100282.31;5082707;28;1963;-50
2023/11/06 06:31:53;;;;;;;;;;;;;;;16.90;49.76;100280.25;5093435;28;1911;-48
2023/11/06 06:34:20;;;;;;;;;;;;;;;16.76;48.94;100291.88;5097324;28;1123;-46
2023/11/06 06:36:45;;;;;;;;;;;;;;;16.64;48.07;100296.91;5079000;28;932;-47
2023/11/06 06:39:11;;;;;;;;;;;;;;;16.50;47.64;100299.47;5092602;28;1031;-44
2023/11/06 06:41:36;;;;;;;;;;;;;;;17.19;48.95;100301.44;5087613;28;1091;-49
2023/11/06 06:44:02;;;;;;;;;;;;;;;17.13;50.05;100297.94;5099806;28;1012;-45
2023/11/06 06:46:27;;;;;;;;;;;;;;;16.89;49.03;100303.38;5090542;28;1100;-47
2023/11/06 06:48:52;;;;;;;;;;;;;;;17.82;50.56;100305.19;5081565;28;1963;-43
2023/11/06 06:51:18;;;;;;;;;;;;;;;17.16;50.33;100310.28;5099521;28;1070;-49
2023/11/06 06:53:45;;;;;;;;;;;;;;;16.88;49.39;100301.69;5097355;28;1070;-50
2023/11/06 06:56:10;;;;;;;;;;;;;;;16.85;48.25;100305.00;5088045;28;1016;-46
2023/11/06 06:58:37;;;;;;;;;;;;;;;16.85;47.49;100311.31;5084096;28;1142;-46
2023/11/06 07:01:03;;;;;;;;;;;;;;;16.71;47.13;100321.31;5085025;28;1300;-48
2023/11/06 07:03:30;;;;;;;;;;;;;;;17.68;49.69;100322.38;5090665;28;1390;-48
2023/11/06 07:05:55;;;;;;;;;;;;;;;17.15;49.47;100323.16;5086388;28;1030;-46
2023/11/06 07:08:21;;;;;;;;;;;;;;;17.10;48.44;100321.28;5098730;28;1905;-49
2023/11/06 07:10:47;;;;;;;;;;;;;;;16.90;47.97;100324.19;5097714;28;1110;-50
2023/11/06 07:13:12;;;;;;;;;;;;;;;17.68;49.75;100333.38;5097589;28;1339;-51
2023/11/06 07:15:38;;;;;;;;;;;;;;;17.13;49.52;100336.38;5098254;28;1299;-45
2023/11/06 07:18:06;;;;;;;;;;;;;;;16.97;48.28;100354.94;5085295;28;1114;-46
2023/11/06 07:20:31;;;;;;;;;;;;;;;16.89;47.68;100350.06;5084948;28;1058;-45
2023/11/06 07:22:57;;;;;;;;;;;;;;;16.74;47.41;100356.44;5086011;28;1050;-48
2023/11/06 07:25:23;;;;;;;;;;;;;;;17.70;48.95;100361.41;5090266;28;1368;-47
2023/11/06 07:27:49;;;;;;;;;;;;;;;17.19;48.75;100354.47;5084724;28;1966;-45
2023/11/06 07:30:14;;;;;;;;;;;;;;;17.01;47.84;100363.41;5097641;28;1156;-47
2023/11/06 07:32:41;;;;;;;;;;;;;;;16.82;47.38;100366.00;5095005;28;1382;-45
2023/11/06 07:35:07;;;;;;;;;;;;;;;16.73;46.94;100361.09;5096458;28;1206;-50
2023/11/06 07:37:33;;;;;;;;;;;;;;;16.96;47.44;100372.50;5092056;28;1606;-44
2023/11/06 07:39:58;;;;;;;;;;;;;;;17.69;49.54;100370.75;5095832;28;1196;-49
2023/11/06 07:42:24;;;;;;;;;;;;;;;17.16;49.32;100377.03;5096655;28;1556;-48
2023/11/06 07:44:49;;;;;;;;;;;;;;;16.96;48.21;100378.00;5096369;28;1184;-48
2023/11/06 07:47:15;;;;;;;;;;;;;;;16.86;47.41;100386.28;5094524;28;1901;-45
2023/11/06 07:49:40;;;;;;;;;;;;;;;16.85;47.07;100384.66;5089805;28;1274;-46
2023/11/06 07:52:09;;;;;;;;;;;;;;;16.65;46.73;100383.66;5091030;28;1232;-49
2023/11/06 07:54:39;;;;;;;;;;;;;;;16.62;46.19;100387.00;5093263;28;1511;-48
2023/11/06 07:57:04;;;;;;;;;;;;;;;16.55;46.46;100379.06;5078775;28;1390;-49
2023/11/06 07:59:30;;;;;;;;;;;;;;;17.29;47.79;100386.53;5095163;28;1397;-46
2023/11/06 08:01:56;;;;;;;;;;;;;;;17.19;48.42;100389.38;5084581;28;1564;-48
2023/11/06 08:04:22;;;;;;;;;;;;;;;16.88;48.41;100382.16;5096621;28;1370;-45
2023/11/06 08:06:47;;;;;;;;;;;;;;;16.75;47.52;100383.59;5096844;28;1472;-46
2023/11/06 08:09:13;;;;;;;;;;;;;;;16.68;47.12;100391.34;5097729;28;1980;-52
2023/11/06 08:11:38;;;;;;;;;;;;;;;17.07;47.48;100389.75;5096837;28;1295;-48
2023/11/06 08:14:04;;;;;;;;;;;;;;;17.52;49.19;100389.66;5096452;28;1137;-48
2023/11/06 08:16:34;;;;;;;;;;;;;;;17.12;48.64;100400.69;5093680;28;1394;-49
2023/11/06 08:18:59;;;;;;;;;;;;;;;16.92;47.95;100404.41;5097546;28;1163;-45
2023/11/06 08:21:25;;;;;;;;;;;;;;;16.84;47.45;100407.72;5091434;28;1200;-46
2023/11/06 08:23:50;;;;;;;;;;;;;;;16.80;46.83;100412.13;5090321;28;1090;-51
2023/11/06 08:26:16;;;;;;;;;;;;;;;16.84;46.97;100408.53;5089025;28;1045;-50
2023/11/06 08:28:42;;;;;;;;;;;;;;;17.35;48.85;100418.38;5097255;28;1980;-50
2023/11/06 08:31:09;;;;;;;;;;;;;;;17.04;48.36;100420.50;5091526;28;995;-47
2023/11/06 08:33:35;;;;;;;;;;;;;;;16.92;47.69;100418.13;5086534;28;1177;-46
2023/11/06 08:36:01;;;;;;;;;;;;;;;17.48;48.37;100435.31;5097375;28;1274;-49
2023/11/06 08:38:26;;;;;;;;;;;;;;;17.35;48.95;100434.84;5090393;28;1436;-50
2023/11/06 08:40:53;;;;;;;;;;;;;;;17.15;48.22;100435.81;5097332;28;1254;-43
2023/11/06 08:43:19;;;;;;;;;;;;;;;16.89;47.96;100433.25;5090418;28;1231;-45
2023/11/06 08:45:44;;;;;;;;;;;;;;;16.87;46.94;100440.09;5096945;28;1314;-47
2023/11/06 08:48:10;;;;;;;;;;;;;;;16.75;46.85;100444.00;5097281;28;1968;-48
2023/11/06 08:50:35;;;;;;;;;;;;;;;17.00;46.74;100444.16;5095686;28;1546;-48
2023/11/06 08:53:02;;;;;;;;;;;;;;;17.42;48.64;100451.84;5078661;28;1351;-51
2023/11/06 08:55:28;;;;;;;;;;;;;;;17.05;48.31;100436.69;5091096;28;1414;-47
2023/11/06 08:57:54;;;;;;;;;;;;;;;16.93;47.65;100434.31;5088643;28;1375;-45
2023/11/06 09:00:19;;;;;;;;;;;;;;;17.31;48.10;100443.97;5088715;28;1187;-47
2023/11/06 09:02:46;;;;;;;;;;;;;;;17.44;49.20;100438.63;5095495;28;1214;-48
2023/11/06 09:05:13;;;;;;;;;;;;;;;17.17;48.32;100444.59;5096973;28;1294;-49
2023/11/06 09:07:38;;;;;;;;;;;;;;;17.08;47.83;100441.66;5096311;28;1910;-50
2023/11/06 09:10:04;;;;;;;;;;;;;;;16.88;47.46;100436.25;5083427;28;1465;-48
2023/11/06 09:12:30;;;;;;;;;;;;;;;16.96;46.53;100449.41;5091155;28;1739;-47
2023/11/06 09:14:57;;;;;;;;;;;;;;;16.85;46.54;100437.63;5088786;28;1647;-49
2023/11/06 09:17:23;;;;;;;;;;;;;;;16.69;46.37;100450.63;5094403;28;1440;-47
2023/11/06 09:19:48;;;;;;;;;;;;;;;17.14;47.52;100452.59;5080935;28;1336;-45
2023/11/06 09:22:14;;;;;;;;;;;;;;;17.41;49.15;100439.19;5085767;28;1158;-46
2023/11/06 09:24:39;;;;;;;;;;;;;;;17.09;48.46;100442.47;5080809;28;1221;-45
2023/11/06 09:27:05;;;;;;;;;;;;;;;16.97;47.59;100442.81;5076203;28;909;-46
2023/11/06 09:29:30;;;;;;;;;;;;;;;16.84;47.11;100435.97;5076305;28;1917;-48
2023/11/06 09:31:56;;;;;;;;;;;;;;;16.84;46.76;100446.16;5089151;28;1448;-50
2023/11/06 09:34:22;;;;;;;;;;;;;;;16.81;46.40;100430.25;5079824;28;1209;-48
2023/11/06 09:36:47;;;;;;;;;;;;;;;17.49;47.85;100445.19;5091978;28;2173;-46
2023/11/06 09:39:12;;;;;;;;;;;;;;;17.05;48.27;100438.63;5089322;28;2041;-46
2023/11/06 09:41:38;;;;;;;;;;;;;;;16.97;47.52;100445.56;5080962;28;2062;-49
2023/11/06 09:44:07;;;;;;;;;;;;;;;16.82;47.16;100440.13;5087992;28;2094;-47
2023/11/06 09:46:33;;;;;;;;;;;;;;;17.51;48.45;100442.97;5084363;28;1953;-48
2023/11/06 09:48:59;;;;;;;;;;;;;;;17.08;48.36;100438.91;5093516;28;1983;-48
2023/11/06 09:51:26;;;;;;;;;;;;;;;17.01;47.64;100443.91;5063742;28;1808;-50
2023/11/06 09:53:53;;;;;;;;;;;;;;;16.90;46.96;100439.53;5077487;28;1225;-47
2023/11/06 09:56:19;;;;;;;;;;;;;;;16.93;46.47;100450.00;5077724;28;1035;-46
2023/11/06 09:58:45;;;;;;;;;;;;;;;16.90;46.78;100429.41;5084948;28;1018;-48
2023/11/06 10:01:13;;;;;;;;;;;;;;;17.40;48.56;100443.06;5083882;28;2186;-46
2023/11/06 10:03:39;;;;;;;;;;;;;;;17.06;48.08;100438.34;5098614;28;1879;-46
2023/11/06 10:06:05;;;;;;;;;;;;;;;17.03;47.48;100430.69;5092482;28;2078;-48
2023/11/06 10:08:31;;;;;;;;;;;;;;;16.88;47.04;100444.50;5092768;28;2090;-49
2023/11/06 10:11:00;;;;;;;;;;;;;;;16.75;46.56;100441.25;5097143;28;1965;-48
2023/11/06 10:13:26;;;;;;;;;;;;;;;16.84;46.37;100446.16;5091791;28;2109;-44
2023/11/06 10:15:51;;;;;;;;;;;;;;;16.71;46.20;100442.91;5096954;28;1895;-47
2023/11/06 10:18:21;;;;;;;;;;;;;;;16.79;45.77;100444.28;5095399;28;1245;-46
2023/11/06 10:20:47;;;;;;;;;;;;;;;16.61;45.98;100442.97;5099351;28;1053;-45
2023/11/06 10:23:30;;;;;;;;;;;;;;;17.17;46.65;100457.53;5089326;28;998;-48
2023/11/06 10:25:57;;;;;;;;;;;;;;;17.40;48.96;100445.81;5081314;28;1011;-44
2023/11/06 10:28:23;;;;;;;;;;;;;;;17.08;48.29;100457.28;5074598;28;1977;-47
2023/11/06 10:30:50;;;;;;;;;;;;;;;16.88;47.75;100464.56;5100093;28;1061;-50
2023/11/06 10:33:15;;;;;;;;;;;;;;;16.91;47.02;100463.16;5086496;28;1161;-45
2023/11/06 10:35:41;;;;;;;;;;;;;;;17.03;47.46;100463.66;5092912;28;1125;-50
2023/11/06 10:38:07;;;;;;;;;;;;;;;17.38;48.85;100469.19;5083642;28;1058;-49
2023/11/06 10:40:32;;;;;;;;;;;;;;;17.08;48.17;100460.03;5085770;28;1057;-47
2023/11/06 10:42:58;;;;;;;;;;;;;;;16.93;47.66;100470.03;5086871;28;1165;-50
2023/11/06 10:45:26;;;;;;;;;;;;;;;16.94;46.79;100468.09;5077219;28;1206;-50
2023/11/06 10:47:55;;;;;;;;;;;;;;;17.36;47.69;100469.50;5074872;28;1908;-50
2023/11/06 10:50:23;;;;;;;;;;;;;;;17.25;48.24;100462.41;5072986;28;1249;-48
2023/11/06 10:52:52;;;;;;;;;;;;;;;17.07;47.65;100461.16;5085388;28;1305;-46
2023/11/06 10:55:19;;;;;;;;;;;;;;;16.83;47.39;100467.31;5089975;28;1284;-49
2023/11/06 10:57:45;;;;;;;;;;;;;;;16.87;46.64;100462.91;5093953;28;1142;-50
2023/11/06 11:00:19;;;;;;;;;;;;;;;16.77;46.67;100465.69;5097733;28;1553;-50
2023/11/06 11:02:47;;;;;;;;;;;;;;;17.26;47.35;100467.63;5094532;28;1078;-47
2023/11/06 11:05:14;;;;;;;;;;;;;;;17.19;48.08;100464.34;5080830;28;1078;-48
2023/11/06 11:07:40;;;;;;;;;;;;;;;16.99;47.54;100467.25;5085795;28;1909;-47
2023/11/06 11:10:10;;;;;;;;;;;;;;;16.86;47.02;100461.25;5089659;28;1279;-49
2023/11/06 11:12:36;;;;;;;;;;;;;;;16.87;46.38;100476.63;5079814;28;1020;-46
2023/11/06 11:15:01;;;;;;;;;;;;;;;16.74;46.55;100478.03;5097639;28;858;-47
2023/11/06 11:17:27;;;;;;;;;;;;;;;16.72;46.29;100487.69;5080591;28;1031;-47
2023/11/06 11:19:56;;;;;;;;;;;;;;;16.65;46.12;100488.00;5089699;28;1026;-46
2023/11/06 11:22:24;;;;;;;;;;;;;;;17.66;47.77;100488.78;5080592;28;1093;-45
2023/11/06 11:24:50;;;;;;;;;;;;;;;17.14;48.17;100482.81;5095490;28;1218;-49
2023/11/06 11:27:16;;;;;;;;;;;;;;;16.90;47.81;100472.50;5094908;28;1913;-45
2023/11/06 11:29:58;;;;;;;;;;;;;;;16.92;47.17;100475.81;5088224;28;1094;-44
2023/11/06 11:32:29;;;;;;;;;;;;;;;16.81;46.62;100457.72;5092138;28;1113;-45
2023/11/06 11:34:57;;;;;;;;;;;;;;;16.67;46.57;100463.81;5081004;28;1011;-46
2023/11/06 11:37:29;;;;;;;;;;;;;;;16.68;46.27;100489.34;5089123;28;1174;-45
2023/11/06 11:39:56;;;;;;;;;;;;;;;16.68;45.79;100481.13;5081024;28;1030;-48
2023/11/06 11:42:22;;;;;;;;;;;;;;;17.35;48.04;100483.50;5088545;28;1071;-46
2023/11/06 11:44:57;;;;;;;;;;;;;;;16.98;47.79;100474.66;5099736;28;1202;-45
2023/11/06 11:47:23;;;;;;;;;;;;;;;17.17;47.77;100487.75;5097909;28;1902;-45
2023/11/06 11:49:49;;;;;;;;;;;;;;;17.19;48.46;100491.03;5098713;28;1010;-48
2023/11/06 11:52:17;;;;;;;;;;;;;;;17.08;47.68;100488.34;5097699;28;948;-47
2023/11/06 11:54:43;;;;;;;;;;;;;;;16.96;47.16;100482.38;5087538;28;1114;-47
2023/11/06 11:57:09;;;;;;;;;;;;;;;16.90;46.72;100489.81;5088412;28;1027;-45
2023/11/06 11:59:39;;;;;;;;;;;;;;;16.87;45.93;100489.53;5094939;28;1089;-48
2023/11/06 12:02:05;;;;;;;;;;;;;;;17.73;47.92;100492.81;5088429;28;1344;-49
2023/11/06 12:04:31;;;;;;;;;;;;;;;17.23;48.29;100486.59;5064627;28;1000;-48
2023/11/06 12:06:59;;;;;;;;;;;;;;;17.04;47.74;100495.50;5089544;28;1058;-49
2023/11/06 12:09:25;;;;;;;;;;;;;;;17.04;47.01;100479.03;5077841;28;1910;-47
2023/11/06 12:11:50;;;;;;;;;;;;;;;16.93;46.64;100491.19;5077534;28;1018;-49
2023/11/06 12:14:16;;;;;;;;;;;;;;;16.85;46.34;100497.25;5093893;28;1074;-48
2023/11/06 12:16:55;;;;;;;;;;;;;;;17.16;46.86;100497.09;5068628;28;1067;-43
2023/11/06 12:19:20;;;;;;;;;;;;;;;17.28;47.90;100500.31;5086052;28;1003;-47
2023/11/06 12:21:58;;;;;;;;;;;;;;;17.13;47.37;100497.66;5097285;28;1560;-47
2023/11/06 12:24:24;;;;;;;;;;;;;;;16.91;46.90;100505.22;5089292;28;1511;-46
2023/11/06 12:26:51;;;;;;;;;;;;;;;16.84;46.37;100501.88;5097193;28;1120;-44
2023/11/06 12:29:26;;;;;;;;;;;;;;;16.79;46.22;100496.44;5096061;28;1909;-47
2023/11/06 12:31:52;;;;;;;;;;;;;;;16.76;45.63;100508.81;5076612;28;1277;-45
2023/11/06 12:34:19;;;;;;;;;;;;;;;16.72;45.53;100515.97;5095229;28;1096;-43
2023/11/06 12:36:45;;;;;;;;;;;;;;;16.65;45.77;100503.63;5089249;28;1085;-44
2023/11/06 12:39:23;;;;;;;;;;;;;;;17.38;47.12;100516.72;5072557;28;1059;-44
2023/11/06 12:41:58;;;;;;;;;;;;;;;16.99;47.27;100505.72;5077169;28;1043;-44
2023/11/06 12:44:39;;;;;;;;;;;;;;;16.86;46.55;100523.59;5094791;28;1144;-46